sensor_id;sensor_type;location;lat;lon;timestamp;P1;durP1;ratioP1;P2;durP2;ratioP2
146;SDS011;45999;48.808;9.182;2023-05-18T00:00:51;7.77;;;4.80;;
146;SDS011;45999;48.808;9.182;2023-05-18T00:03:17;9.70;;;5.17;;
146;SDS011;45999;48.808;9.182;2023-05-18T00:05:44;8.97;;;5.27;;
146;SDS011;45999;48.808;9.182;2023-05-18T00:08:11;8.23;;;5.67;;
146;SDS011;45999;48.808;9.182;2023-05-18T00:10:37;9.50;;;5.60;;
146;SDS011;45999;48.808;9.182;2023-05-18T00:13:03;7.47;;;5.67;;
146;SDS011;45999;48.808;9.182;2023-05-18T00:15:32;10.43;;;6.00;;
146;SDS011;45999;48.808;9.182;2023-05-18T00:17:59;10.17;;;6.17;;
146;SDS011;45999;48.808;9.182;2023-05-18T00:20:25;10.50;;;6.03;;
146;SDS011;45999;48.808;9.182;2023-05-18T00:22:53;9.17;;;5.80;;
146;SDS011;45999;48.808;9.182;2023-05-18T00:25:19;8.00;;;5.23;;
146;SDS011;45999;48.808;9.182;2023-05-18T00:27:46;9.20;;;5.80;;
146;SDS011;45999;48.808;9.182;2023-05-18T00:30:13;7.67;;;5.00;;
146;SDS011;45999;48.808;9.182;2023-05-18T00:32:40;7.30;;;5.50;;
146;SDS011;45999;48.808;9.182;2023-05-18T00:35:06;6.10;;;4.93;;
146;SDS011;45999;48.808;9.182;2023-05-18T00:37:33;10.83;;;5.50;;
146;SDS011;45999;48.808;9.182;2023-05-18T00:39:59;8.07;;;5.03;;
146;SDS011;45999;48.808;9.182;2023-05-18T00:42:26;7.67;;;5.03;;
146;SDS011;45999;48.808;9.182;2023-05-18T00:44:52;8.67;;;4.90;;
146;SDS011;45999;48.808;9.182;2023-05-18T00:47:18;9.53;;;5.23;;
146;SDS011;45999;48.808;9.182;2023-05-18T00:49:45;9.87;;;5.67;;
146;SDS011;45999;48.808;9.182;2023-05-18T00:52:12;7.73;;;5.50;;
146;SDS011;45999;48.808;9.182;2023-05-18T00:54:38;6.77;;;5.20;;
146;SDS011;45999;48.808;9.182;2023-05-18T00:57:05;9.90;;;5.43;;
146;SDS011;45999;48.808;9.182;2023-05-18T00:59:31;6.97;;;5.20;;
146;SDS011;45999;48.808;9.182;2023-05-18T01:01:58;7.27;;;4.57;;
146;SDS011;45999;48.808;9.182;2023-05-18T01:04:26;5.40;;;4.90;;
146;SDS011;45999;48.808;9.182;2023-05-18T01:06:55;7.47;;;5.30;;
146;SDS011;45999;48.808;9.182;2023-05-18T01:09:22;7.30;;;4.63;;
146;SDS011;45999;48.808;9.182;2023-05-18T01:14:48;6.53;;;4.80;;
146;SDS011;45999;48.808;9.182;2023-05-18T01:22:49;8.07;;;5.27;;
146;SDS011;45999;48.808;9.182;2023-05-18T01:25:32;6.50;;;4.97;;
146;SDS011;45999;48.808;9.182;2023-05-18T01:28:05;9.67;;;5.17;;
146;SDS011;45999;48.808;9.182;2023-05-18T01:30:40;7.03;;;5.30;;
146;SDS011;45999;48.808;9.182;2023-05-18T01:33:07;8.63;;;5.67;;
146;SDS011;45999;48.808;9.182;2023-05-18T01:35:35;8.50;;;5.37;;
146;SDS011;45999;48.808;9.182;2023-05-18T01:38:02;9.60;;;5.10;;
146;SDS011;45999;48.808;9.182;2023-05-18T01:40:30;7.77;;;5.17;;
146;SDS011;45999;48.808;9.182;2023-05-18T01:43:02;7.40;;;5.40;;
146;SDS011;45999;48.808;9.182;2023-05-18T01:45:36;8.47;;;4.90;;
146;SDS011;45999;48.808;9.182;2023-05-18T01:48:06;6.50;;;4.80;;
146;SDS011;45999;48.808;9.182;2023-05-18T01:50:38;8.13;;;5.03;;
146;SDS011;45999;48.808;9.182;2023-05-18T01:53:11;8.17;;;5.20;;
146;SDS011;45999;48.808;9.182;2023-05-18T01:55:45;7.37;;;4.93;;
146;SDS011;45999;48.808;9.182;2023-05-18T01:58:13;7.67;;;5.37;;
146;SDS011;45999;48.808;9.182;2023-05-18T02:00:41;5.47;;;4.80;;
146;SDS011;45999;48.808;9.182;2023-05-18T02:03:09;8.67;;;5.00;;
146;SDS011;45999;48.808;9.182;2023-05-18T02:05:37;8.47;;;5.17;;
146;SDS011;45999;48.808;9.182;2023-05-18T02:08:04;8.83;;;5.50;;
146;SDS011;45999;48.808;9.182;2023-05-18T02:10:31;8.13;;;4.90;;
146;SDS011;45999;48.808;9.182;2023-05-18T02:12:57;6.53;;;4.87;;
146;SDS011;45999;48.808;9.182;2023-05-18T02:15:23;8.27;;;5.10;;
146;SDS011;45999;48.808;9.182;2023-05-18T02:17:50;10.93;;;5.67;;
146;SDS011;45999;48.808;9.182;2023-05-18T02:20:16;6.83;;;5.30;;
146;SDS011;45999;48.808;9.182;2023-05-18T02:22:43;7.20;;;5.17;;
146;SDS011;45999;48.808;9.182;2023-05-18T02:25:09;7.93;;;5.07;;
146;SDS011;45999;48.808;9.182;2023-05-18T02:27:36;5.63;;;4.83;;
146;SDS011;45999;48.808;9.182;2023-05-18T02:30:03;6.97;;;5.20;;
146;SDS011;45999;48.808;9.182;2023-05-18T02:32:32;8.43;;;5.13;;
146;SDS011;45999;48.808;9.182;2023-05-18T02:35:05;8.30;;;5.27;;
146;SDS011;45999;48.808;9.182;2023-05-18T02:37:32;8.60;;;5.53;;
146;SDS011;45999;48.808;9.182;2023-05-18T02:40:04;8.17;;;5.40;;
146;SDS011;45999;48.808;9.182;2023-05-18T02:42:39;7.67;;;5.40;;
146;SDS011;45999;48.808;9.182;2023-05-18T02:45:07;9.67;;;5.53;;
146;SDS011;45999;48.808;9.182;2023-05-18T02:47:33;6.40;;;4.90;;
146;SDS011;45999;48.808;9.182;2023-05-18T02:50:00;6.20;;;5.23;;
146;SDS011;45999;48.808;9.182;2023-05-18T02:52:26;6.47;;;5.03;;
146;SDS011;45999;48.808;9.182;2023-05-18T02:54:53;7.70;;;5.40;;
146;SDS011;45999;48.808;9.182;2023-05-18T02:57:20;9.43;;;5.43;;
146;SDS011;45999;48.808;9.182;2023-05-18T02:59:46;5.80;;;5.20;;
146;SDS011;45999;48.808;9.182;2023-05-18T03:02:13;9.00;;;5.60;;
146;SDS011;45999;48.808;9.182;2023-05-18T03:04:40;11.80;;;5.73;;
146;SDS011;45999;48.808;9.182;2023-05-18T03:07:06;8.07;;;5.20;;
146;SDS011;45999;48.808;9.182;2023-05-18T03:09:34;6.57;;;5.60;;
146;SDS011;45999;48.808;9.182;2023-05-18T03:12:01;10.33;;;5.90;;
146;SDS011;45999;48.808;9.182;2023-05-18T03:14:27;9.50;;;5.60;;
146;SDS011;45999;48.808;9.182;2023-05-18T03:16:53;6.97;;;5.10;;
146;SDS011;45999;48.808;9.182;2023-05-18T03:19:21;8.50;;;5.77;;
146;SDS011;45999;48.808;9.182;2023-05-18T03:21:48;8.97;;;6.03;;
146;SDS011;45999;48.808;9.182;2023-05-18T03:24:14;8.83;;;6.43;;
146;SDS011;45999;48.808;9.182;2023-05-18T03:26:41;11.47;;;6.20;;
146;SDS011;45999;48.808;9.182;2023-05-18T03:29:08;9.40;;;5.63;;
146;SDS011;45999;48.808;9.182;2023-05-18T03:31:35;7.93;;;5.90;;
146;SDS011;45999;48.808;9.182;2023-05-18T03:34:01;8.13;;;5.53;;
146;SDS011;45999;48.808;9.182;2023-05-18T03:36:28;7.07;;;5.63;;
146;SDS011;45999;48.808;9.182;2023-05-18T03:38:54;7.57;;;6.00;;
146;SDS011;45999;48.808;9.182;2023-05-18T03:41:20;7.93;;;5.93;;
146;SDS011;45999;48.808;9.182;2023-05-18T03:43:47;7.53;;;5.57;;
146;SDS011;45999;48.808;9.182;2023-05-18T03:46:13;8.00;;;5.43;;
146;SDS011;45999;48.808;9.182;2023-05-18T03:48:39;7.90;;;5.47;;
146;SDS011;45999;48.808;9.182;2023-05-18T03:51:06;6.63;;;5.67;;
146;SDS011;45999;48.808;9.182;2023-05-18T03:53:32;8.67;;;6.13;;
146;SDS011;45999;48.808;9.182;2023-05-18T03:56:00;7.07;;;5.40;;
146;SDS011;45999;48.808;9.182;2023-05-18T03:58:26;8.27;;;5.53;;
146;SDS011;45999;48.808;9.182;2023-05-18T04:00:53;6.90;;;5.47;;
146;SDS011;45999;48.808;9.182;2023-05-18T04:03:20;8.03;;;5.20;;
146;SDS011;45999;48.808;9.182;2023-05-18T04:05:48;7.73;;;5.20;;
146;SDS011;45999;48.808;9.182;2023-05-18T04:08:15;9.97;;;5.93;;
146;SDS011;45999;48.808;9.182;2023-05-18T04:10:42;8.23;;;5.70;;
146;SDS011;45999;48.808;9.182;2023-05-18T04:13:09;8.23;;;5.33;;
146;SDS011;45999;48.808;9.182;2023-05-18T04:15:35;7.83;;;6.00;;
146;SDS011;45999;48.808;9.182;2023-05-18T04:18:02;9.03;;;5.80;;
146;SDS011;45999;48.808;9.182;2023-05-18T04:20:29;9.77;;;5.70;;
146;SDS011;45999;48.808;9.182;2023-05-18T04:22:56;9.20;;;5.50;;
146;SDS011;45999;48.808;9.182;2023-05-18T04:25:22;9.00;;;5.60;;
146;SDS011;45999;48.808;9.182;2023-05-18T04:27:52;8.53;;;5.90;;
146;SDS011;45999;48.808;9.182;2023-05-18T04:30:19;9.97;;;6.77;;
146;SDS011;45999;48.808;9.182;2023-05-18T04:32:47;9.00;;;5.60;;
146;SDS011;45999;48.808;9.182;2023-05-18T04:35:14;7.00;;;5.50;;
146;SDS011;45999;48.808;9.182;2023-05-18T04:37:40;7.33;;;5.90;;
146;SDS011;45999;48.808;9.182;2023-05-18T04:40:07;10.27;;;5.73;;
146;SDS011;45999;48.808;9.182;2023-05-18T04:42:37;11.27;;;6.27;;
146;SDS011;45999;48.808;9.182;2023-05-18T04:45:09;6.57;;;5.13;;
146;SDS011;45999;48.808;9.182;2023-05-18T04:47:46;6.67;;;5.60;;
146;SDS011;45999;48.808;9.182;2023-05-18T04:50:17;9.43;;;5.37;;
146;SDS011;45999;48.808;9.182;2023-05-18T04:52:45;6.63;;;5.33;;
146;SDS011;45999;48.808;9.182;2023-05-18T04:55:13;7.70;;;5.27;;
146;SDS011;45999;48.808;9.182;2023-05-18T04:57:49;8.97;;;5.07;;
146;SDS011;45999;48.808;9.182;2023-05-18T05:00:17;9.60;;;4.97;;
146;SDS011;45999;48.808;9.182;2023-05-18T05:02:45;7.30;;;4.83;;
146;SDS011;45999;48.808;9.182;2023-05-18T05:05:11;7.63;;;4.93;;
146;SDS011;45999;48.808;9.182;2023-05-18T05:07:37;8.07;;;4.30;;
146;SDS011;45999;48.808;9.182;2023-05-18T05:10:04;7.90;;;4.00;;
146;SDS011;45999;48.808;9.182;2023-05-18T05:12:31;5.60;;;4.33;;
146;SDS011;45999;48.808;9.182;2023-05-18T05:14:57;6.83;;;4.17;;
146;SDS011;45999;48.808;9.182;2023-05-18T05:17:23;9.73;;;4.80;;
146;SDS011;45999;48.808;9.182;2023-05-18T05:19:50;6.77;;;5.20;;
146;SDS011;45999;48.808;9.182;2023-05-18T05:22:16;8.63;;;4.43;;
146;SDS011;45999;48.808;9.182;2023-05-18T05:24:43;9.60;;;4.37;;
146;SDS011;45999;48.808;9.182;2023-05-18T05:27:10;5.57;;;4.43;;
146;SDS011;45999;48.808;9.182;2023-05-18T05:29:36;8.97;;;4.77;;
146;SDS011;45999;48.808;9.182;2023-05-18T05:32:03;6.97;;;4.03;;
146;SDS011;45999;48.808;9.182;2023-05-18T05:34:30;9.23;;;4.57;;
146;SDS011;45999;48.808;9.182;2023-05-18T05:36:56;9.90;;;4.53;;
146;SDS011;45999;48.808;9.182;2023-05-18T05:39:22;5.93;;;4.10;;
146;SDS011;45999;48.808;9.182;2023-05-18T05:41:49;10.13;;;4.27;;
146;SDS011;45999;48.808;9.182;2023-05-18T05:44:15;9.60;;;3.63;;
146;SDS011;45999;48.808;9.182;2023-05-18T05:46:41;10.13;;;3.50;;
146;SDS011;45999;48.808;9.182;2023-05-18T05:49:08;6.93;;;3.50;;
146;SDS011;45999;48.808;9.182;2023-05-18T05:51:34;7.90;;;3.63;;
146;SDS011;45999;48.808;9.182;2023-05-18T05:54:01;5.30;;;3.70;;
146;SDS011;45999;48.808;9.182;2023-05-18T05:56:28;10.00;;;3.90;;
146;SDS011;45999;48.808;9.182;2023-05-18T05:58:54;8.17;;;3.73;;
146;SDS011;45999;48.808;9.182;2023-05-18T06:01:20;5.63;;;3.43;;
146;SDS011;45999;48.808;9.182;2023-05-18T06:03:47;8.47;;;3.43;;
146;SDS011;45999;48.808;9.182;2023-05-18T06:06:13;8.80;;;3.20;;
146;SDS011;45999;48.808;9.182;2023-05-18T06:08:40;6.93;;;2.97;;
146;SDS011;45999;48.808;9.182;2023-05-18T06:11:07;8.27;;;3.70;;
146;SDS011;45999;48.808;9.182;2023-05-18T06:13:33;8.23;;;3.33;;
146;SDS011;45999;48.808;9.182;2023-05-18T06:15:59;6.87;;;3.33;;
146;SDS011;45999;48.808;9.182;2023-05-18T06:18:26;5.50;;;3.23;;
146;SDS011;45999;48.808;9.182;2023-05-18T06:20:52;9.17;;;3.30;;
146;SDS011;45999;48.808;9.182;2023-05-18T06:23:18;6.33;;;3.17;;
146;SDS011;45999;48.808;9.182;2023-05-18T06:25:46;6.20;;;3.33;;
146;SDS011;45999;48.808;9.182;2023-05-18T06:28:14;6.53;;;3.23;;
146;SDS011;45999;48.808;9.182;2023-05-18T06:30:40;5.37;;;3.10;;
146;SDS011;45999;48.808;9.182;2023-05-18T06:33:07;10.70;;;3.20;;
146;SDS011;45999;48.808;9.182;2023-05-18T06:35:33;7.30;;;3.17;;
146;SDS011;45999;48.808;9.182;2023-05-18T06:37:59;6.37;;;2.90;;
146;SDS011;45999;48.808;9.182;2023-05-18T06:40:26;9.30;;;3.03;;
146;SDS011;45999;48.808;9.182;2023-05-18T06:42:52;7.93;;;3.30;;
146;SDS011;45999;48.808;9.182;2023-05-18T06:45:19;7.63;;;3.27;;
146;SDS011;45999;48.808;9.182;2023-05-18T06:47:45;9.23;;;3.17;;
146;SDS011;45999;48.808;9.182;2023-05-18T06:50:12;5.57;;;2.70;;
146;SDS011;45999;48.808;9.182;2023-05-18T06:52:38;5.37;;;3.03;;
146;SDS011;45999;48.808;9.182;2023-05-18T06:55:05;5.13;;;2.80;;
146;SDS011;45999;48.808;9.182;2023-05-18T06:57:33;6.23;;;2.90;;
146;SDS011;45999;48.808;9.182;2023-05-18T06:59:59;6.87;;;3.37;;
146;SDS011;45999;48.808;9.182;2023-05-18T07:02:25;7.63;;;2.97;;
146;SDS011;45999;48.808;9.182;2023-05-18T07:04:52;4.27;;;2.40;;
146;SDS011;45999;48.808;9.182;2023-05-18T07:07:18;8.47;;;3.00;;
146;SDS011;45999;48.808;9.182;2023-05-18T07:09:45;8.77;;;3.20;;
146;SDS011;45999;48.808;9.182;2023-05-18T07:12:13;10.20;;;3.27;;
146;SDS011;45999;48.808;9.182;2023-05-18T07:14:40;5.47;;;3.20;;
146;SDS011;45999;48.808;9.182;2023-05-18T07:17:06;8.80;;;3.13;;
146;SDS011;45999;48.808;9.182;2023-05-18T07:19:33;9.83;;;3.63;;
146;SDS011;45999;48.808;9.182;2023-05-18T07:22:00;5.93;;;3.00;;
146;SDS011;45999;48.808;9.182;2023-05-18T07:24:27;9.33;;;3.20;;
146;SDS011;45999;48.808;9.182;2023-05-18T07:26:54;7.93;;;3.13;;
146;SDS011;45999;48.808;9.182;2023-05-18T07:29:20;7.63;;;3.33;;
146;SDS011;45999;48.808;9.182;2023-05-18T07:31:47;6.57;;;3.00;;
146;SDS011;45999;48.808;9.182;2023-05-18T07:34:13;5.63;;;2.90;;
146;SDS011;45999;48.808;9.182;2023-05-18T07:36:39;7.47;;;3.17;;
146;SDS011;45999;48.808;9.182;2023-05-18T07:39:06;12.97;;;3.77;;
146;SDS011;45999;48.808;9.182;2023-05-18T07:41:33;7.20;;;3.17;;
146;SDS011;45999;48.808;9.182;2023-05-18T07:44:00;9.43;;;3.23;;
146;SDS011;45999;48.808;9.182;2023-05-18T07:46:26;6.27;;;3.10;;
146;SDS011;45999;48.808;9.182;2023-05-18T07:48:52;8.33;;;3.03;;
146;SDS011;45999;48.808;9.182;2023-05-18T07:51:19;5.77;;;3.10;;
146;SDS011;45999;48.808;9.182;2023-05-18T07:53:45;6.03;;;3.40;;
146;SDS011;45999;48.808;9.182;2023-05-18T07:56:12;7.93;;;3.67;;
146;SDS011;45999;48.808;9.182;2023-05-18T07:58:39;7.77;;;3.00;;
146;SDS011;45999;48.808;9.182;2023-05-18T08:01:05;9.10;;;3.37;;
146;SDS011;45999;48.808;9.182;2023-05-18T08:03:31;11.80;;;3.57;;
146;SDS011;45999;48.808;9.182;2023-05-18T08:05:58;4.57;;;2.70;;
146;SDS011;45999;48.808;9.182;2023-05-18T08:08:24;6.47;;;2.97;;
146;SDS011;45999;48.808;9.182;2023-05-18T08:10:51;8.40;;;3.33;;
146;SDS011;45999;48.808;9.182;2023-05-18T08:13:18;4.43;;;2.50;;
146;SDS011;45999;48.808;9.182;2023-05-18T08:15:44;7.90;;;3.43;;
146;SDS011;45999;48.808;9.182;2023-05-18T08:18:11;8.17;;;3.23;;
146;SDS011;45999;48.808;9.182;2023-05-18T08:20:37;8.20;;;3.60;;
146;SDS011;45999;48.808;9.182;2023-05-18T08:23:04;6.37;;;3.40;;
146;SDS011;45999;48.808;9.182;2023-05-18T08:25:30;6.60;;;2.87;;
146;SDS011;45999;48.808;9.182;2023-05-18T08:27:56;6.20;;;3.17;;
146;SDS011;45999;48.808;9.182;2023-05-18T08:30:23;9.30;;;3.10;;
146;SDS011;45999;48.808;9.182;2023-05-18T08:32:50;8.87;;;3.23;;
146;SDS011;45999;48.808;9.182;2023-05-18T08:35:17;8.30;;;3.27;;
146;SDS011;45999;48.808;9.182;2023-05-18T08:37:43;8.80;;;3.10;;
146;SDS011;45999;48.808;9.182;2023-05-18T08:40:10;6.77;;;3.27;;
146;SDS011;45999;48.808;9.182;2023-05-18T08:48:05;8.97;;;3.37;;
146;SDS011;45999;48.808;9.182;2023-05-18T08:50:33;8.30;;;3.10;;
146;SDS011;45999;48.808;9.182;2023-05-18T08:53:01;7.83;;;2.93;;
146;SDS011;45999;48.808;9.182;2023-05-18T08:55:30;8.23;;;2.93;;
146;SDS011;45999;48.808;9.182;2023-05-18T08:58:00;10.10;;;2.90;;
146;SDS011;45999;48.808;9.182;2023-05-18T09:00:28;9.33;;;2.80;;
146;SDS011;45999;48.808;9.182;2023-05-18T09:02:55;7.60;;;3.03;;
146;SDS011;45999;48.808;9.182;2023-05-18T09:05:21;8.27;;;2.77;;
146;SDS011;45999;48.808;9.182;2023-05-18T09:07:51;6.27;;;3.13;;
146;SDS011;45999;48.808;9.182;2023-05-18T09:10:19;6.67;;;3.20;;
146;SDS011;45999;48.808;9.182;2023-05-18T09:12:47;6.77;;;2.90;;
146;SDS011;45999;48.808;9.182;2023-05-18T09:15:16;10.13;;;3.10;;
146;SDS011;45999;48.808;9.182;2023-05-18T09:17:42;6.40;;;2.60;;
146;SDS011;45999;48.808;9.182;2023-05-18T09:20:09;5.73;;;2.97;;
146;SDS011;45999;48.808;9.182;2023-05-18T09:22:35;9.57;;;3.63;;
146;SDS011;45999;48.808;9.182;2023-05-18T09:25:04;7.60;;;3.20;;
146;SDS011;45999;48.808;9.182;2023-05-18T09:27:33;7.70;;;3.30;;
146;SDS011;45999;48.808;9.182;2023-05-18T09:29:59;6.13;;;3.20;;
146;SDS011;45999;48.808;9.182;2023-05-18T09:32:25;8.10;;;3.37;;
146;SDS011;45999;48.808;9.182;2023-05-18T09:34:52;6.33;;;3.20;;
146;SDS011;45999;48.808;9.182;2023-05-18T09:37:19;6.93;;;2.83;;
146;SDS011;45999;48.808;9.182;2023-05-18T09:39:56;5.63;;;3.10;;
146;SDS011;45999;48.808;9.182;2023-05-18T09:42:33;8.97;;;3.40;;
146;SDS011;45999;48.808;9.182;2023-05-18T09:45:01;5.50;;;3.30;;
146;SDS011;45999;48.808;9.182;2023-05-18T09:47:50;5.73;;;3.00;;
146;SDS011;45999;48.808;9.182;2023-05-18T09:50:23;8.57;;;3.63;;
146;SDS011;45999;48.808;9.182;2023-05-18T09:52:50;7.37;;;3.00;;
146;SDS011;45999;48.808;9.182;2023-05-18T09:55:17;7.57;;;3.30;;
146;SDS011;45999;48.808;9.182;2023-05-18T09:57:45;5.50;;;3.17;;
146;SDS011;45999;48.808;9.182;2023-05-18T10:00:12;6.13;;;2.80;;
146;SDS011;45999;48.808;9.182;2023-05-18T10:02:41;9.87;;;2.87;;
146;SDS011;45999;48.808;9.182;2023-05-18T10:05:22;7.53;;;3.33;;
146;SDS011;45999;48.808;9.182;2023-05-18T10:07:52;7.63;;;3.13;;
146;SDS011;45999;48.808;9.182;2023-05-18T10:10:20;7.87;;;3.23;;
146;SDS011;45999;48.808;9.182;2023-05-18T10:12:51;7.53;;;3.13;;
146;SDS011;45999;48.808;9.182;2023-05-18T10:15:21;6.53;;;3.07;;
146;SDS011;45999;48.808;9.182;2023-05-18T10:17:49;7.27;;;3.10;;
146;SDS011;45999;48.808;9.182;2023-05-18T10:20:19;10.40;;;3.30;;
146;SDS011;45999;48.808;9.182;2023-05-18T10:22:48;7.67;;;3.10;;
146;SDS011;45999;48.808;9.182;2023-05-18T10:25:17;8.00;;;3.00;;
146;SDS011;45999;48.808;9.182;2023-05-18T10:27:45;4.33;;;2.70;;
146;SDS011;45999;48.808;9.182;2023-05-18T10:30:14;5.83;;;2.80;;
146;SDS011;45999;48.808;9.182;2023-05-18T10:32:41;6.30;;;3.07;;
146;SDS011;45999;48.808;9.182;2023-05-18T10:35:09;9.77;;;3.20;;
146;SDS011;45999;48.808;9.182;2023-05-18T10:37:37;8.30;;;2.97;;
146;SDS011;45999;48.808;9.182;2023-05-18T10:40:06;9.40;;;2.63;;
146;SDS011;45999;48.808;9.182;2023-05-18T10:42:35;5.67;;;2.77;;
146;SDS011;45999;48.808;9.182;2023-05-18T10:45:02;6.40;;;2.87;;
146;SDS011;45999;48.808;9.182;2023-05-18T10:47:31;6.60;;;3.00;;
146;SDS011;45999;48.808;9.182;2023-05-18T10:49:59;6.37;;;2.80;;
146;SDS011;45999;48.808;9.182;2023-05-18T10:52:29;7.43;;;2.83;;
146;SDS011;45999;48.808;9.182;2023-05-18T10:54:57;6.63;;;2.77;;
146;SDS011;45999;48.808;9.182;2023-05-18T10:57:25;6.53;;;3.23;;
146;SDS011;45999;48.808;9.182;2023-05-18T10:59:59;6.57;;;2.80;;
146;SDS011;45999;48.808;9.182;2023-05-18T11:02:26;5.47;;;2.70;;
146;SDS011;45999;48.808;9.182;2023-05-18T11:04:53;5.60;;;2.73;;
146;SDS011;45999;48.808;9.182;2023-05-18T11:07:20;6.80;;;2.80;;
146;SDS011;45999;48.808;9.182;2023-05-18T11:09:48;9.77;;;3.40;;
146;SDS011;45999;48.808;9.182;2023-05-18T11:12:17;7.20;;;2.33;;
146;SDS011;45999;48.808;9.182;2023-05-18T11:14:50;5.23;;;2.37;;
146;SDS011;45999;48.808;9.182;2023-05-18T11:17:19;8.57;;;3.17;;
146;SDS011;45999;48.808;9.182;2023-05-18T11:22:44;8.60;;;2.97;;
146;SDS011;45999;48.808;9.182;2023-05-18T11:27:50;7.27;;;2.60;;
146;SDS011;45999;48.808;9.182;2023-05-18T11:30:27;7.27;;;3.00;;
146;SDS011;45999;48.808;9.182;2023-05-18T11:35:33;5.57;;;2.57;;
146;SDS011;45999;48.808;9.182;2023-05-18T11:38:18;4.43;;;2.50;;
146;SDS011;45999;48.808;9.182;2023-05-18T11:40:46;7.13;;;2.30;;
146;SDS011;45999;48.808;9.182;2023-05-18T11:43:23;5.87;;;2.60;;
146;SDS011;45999;48.808;9.182;2023-05-18T11:45:56;6.10;;;2.60;;
146;SDS011;45999;48.808;9.182;2023-05-18T11:48:27;4.60;;;2.33;;
146;SDS011;45999;48.808;9.182;2023-05-18T11:50:54;5.73;;;2.50;;
146;SDS011;45999;48.808;9.182;2023-05-18T11:53:22;6.63;;;2.70;;
146;SDS011;45999;48.808;9.182;2023-05-18T11:55:52;5.83;;;2.63;;
146;SDS011;45999;48.808;9.182;2023-05-18T11:58:22;5.17;;;2.57;;
146;SDS011;45999;48.808;9.182;2023-05-18T12:00:50;5.60;;;2.65;;
146;SDS011;45999;48.808;9.182;2023-05-18T12:03:17;5.47;;;2.30;;
146;SDS011;45999;48.808;9.182;2023-05-18T12:05:49;7.10;;;2.80;;
146;SDS011;45999;48.808;9.182;2023-05-18T12:08:16;6.10;;;2.27;;
146;SDS011;45999;48.808;9.182;2023-05-18T12:10:44;5.20;;;2.40;;
146;SDS011;45999;48.808;9.182;2023-05-18T12:13:12;8.27;;;2.90;;
146;SDS011;45999;48.808;9.182;2023-05-18T12:15:39;4.47;;;2.63;;
146;SDS011;45999;48.808;9.182;2023-05-18T12:18:06;4.37;;;2.90;;
146;SDS011;45999;48.808;9.182;2023-05-18T12:20:32;5.33;;;3.00;;
146;SDS011;45999;48.808;9.182;2023-05-18T12:22:59;4.40;;;2.40;;
146;SDS011;45999;48.808;9.182;2023-05-18T12:25:26;7.40;;;3.00;;
146;SDS011;45999;48.808;9.182;2023-05-18T12:27:53;4.53;;;2.27;;
146;SDS011;45999;48.808;9.182;2023-05-18T12:30:21;5.60;;;2.60;;
146;SDS011;45999;48.808;9.182;2023-05-18T12:32:52;6.50;;;2.50;;
146;SDS011;45999;48.808;9.182;2023-05-18T12:35:23;6.67;;;2.57;;
146;SDS011;45999;48.808;9.182;2023-05-18T12:37:51;6.87;;;2.80;;
146;SDS011;45999;48.808;9.182;2023-05-18T12:40:21;5.17;;;2.23;;
146;SDS011;45999;48.808;9.182;2023-05-18T12:42:51;7.70;;;2.33;;
146;SDS011;45999;48.808;9.182;2023-05-18T12:45:25;5.37;;;2.60;;
146;SDS011;45999;48.808;9.182;2023-05-18T12:47:55;7.57;;;2.63;;
146;SDS011;45999;48.808;9.182;2023-05-18T12:50:28;8.23;;;2.30;;
146;SDS011;45999;48.808;9.182;2023-05-18T12:52:55;6.23;;;2.50;;
146;SDS011;45999;48.808;9.182;2023-05-18T12:55:22;7.80;;;2.47;;
146;SDS011;45999;48.808;9.182;2023-05-18T12:58:03;8.13;;;3.00;;
146;SDS011;45999;48.808;9.182;2023-05-18T13:00:30;7.40;;;2.47;;
146;SDS011;45999;48.808;9.182;2023-05-18T13:03:07;7.30;;;2.90;;
146;SDS011;45999;48.808;9.182;2023-05-18T13:05:38;7.53;;;2.57;;
146;SDS011;45999;48.808;9.182;2023-05-18T13:08:05;5.73;;;2.40;;
146;SDS011;45999;48.808;9.182;2023-05-18T13:10:32;6.20;;;2.23;;
146;SDS011;45999;48.808;9.182;2023-05-18T13:12:59;9.70;;;2.40;;
146;SDS011;45999;48.808;9.182;2023-05-18T13:15:31;6.60;;;2.50;;
146;SDS011;45999;48.808;9.182;2023-05-18T13:18:03;6.33;;;2.50;;
146;SDS011;45999;48.808;9.182;2023-05-18T13:23:22;6.57;;;2.30;;
146;SDS011;45999;48.808;9.182;2023-05-18T13:25:51;7.23;;;2.73;;
146;SDS011;45999;48.808;9.182;2023-05-18T13:28:18;9.23;;;2.50;;
146;SDS011;45999;48.808;9.182;2023-05-18T13:30:46;6.33;;;2.70;;
146;SDS011;45999;48.808;9.182;2023-05-18T13:33:17;4.37;;;2.13;;
146;SDS011;45999;48.808;9.182;2023-05-18T13:35:44;4.13;;;2.10;;
146;SDS011;45999;48.808;9.182;2023-05-18T13:38:12;5.93;;;2.47;;
146;SDS011;45999;48.808;9.182;2023-05-18T13:40:40;5.60;;;2.60;;
146;SDS011;45999;48.808;9.182;2023-05-18T13:43:07;8.37;;;2.10;;
146;SDS011;45999;48.808;9.182;2023-05-18T13:45:34;4.87;;;2.30;;
146;SDS011;45999;48.808;9.182;2023-05-18T13:48:00;4.50;;;2.27;;
146;SDS011;45999;48.808;9.182;2023-05-18T13:50:31;6.87;;;2.53;;
146;SDS011;45999;48.808;9.182;2023-05-18T13:52:58;5.03;;;2.50;;
146;SDS011;45999;48.808;9.182;2023-05-18T13:55:24;5.63;;;2.30;;
146;SDS011;45999;48.808;9.182;2023-05-18T13:57:51;6.50;;;2.50;;
146;SDS011;45999;48.808;9.182;2023-05-18T14:00:17;6.47;;;2.13;;
146;SDS011;45999;48.808;9.182;2023-05-18T14:02:44;5.13;;;2.30;;
146;SDS011;45999;48.808;9.182;2023-05-18T14:05:12;7.67;;;2.53;;
146;SDS011;45999;48.808;9.182;2023-05-18T14:07:39;5.60;;;2.53;;
146;SDS011;45999;48.808;9.182;2023-05-18T14:10:07;5.20;;;2.83;;
146;SDS011;45999;48.808;9.182;2023-05-18T14:12:35;7.40;;;3.27;;
146;SDS011;45999;48.808;9.182;2023-05-18T14:15:02;7.27;;;2.80;;
146;SDS011;45999;48.808;9.182;2023-05-18T14:17:30;6.87;;;2.93;;
146;SDS011;45999;48.808;9.182;2023-05-18T14:19:56;5.93;;;2.47;;
146;SDS011;45999;48.808;9.182;2023-05-18T14:22:23;4.63;;;2.13;;
146;SDS011;45999;48.808;9.182;2023-05-18T14:24:51;8.43;;;2.53;;
146;SDS011;45999;48.808;9.182;2023-05-18T14:27:18;8.47;;;2.63;;
146;SDS011;45999;48.808;9.182;2023-05-18T14:29:45;6.20;;;3.20;;
146;SDS011;45999;48.808;9.182;2023-05-18T14:32:11;4.57;;;2.20;;
146;SDS011;45999;48.808;9.182;2023-05-18T14:34:38;7.23;;;2.87;;
146;SDS011;45999;48.808;9.182;2023-05-18T14:37:04;7.27;;;2.20;;
146;SDS011;45999;48.808;9.182;2023-05-18T14:39:31;5.87;;;2.17;;
146;SDS011;45999;48.808;9.182;2023-05-18T14:41:57;6.17;;;2.30;;
146;SDS011;45999;48.808;9.182;2023-05-18T14:44:23;5.13;;;2.40;;
146;SDS011;45999;48.808;9.182;2023-05-18T14:46:51;4.80;;;2.20;;
146;SDS011;45999;48.808;9.182;2023-05-18T14:49:17;5.27;;;2.40;;
146;SDS011;45999;48.808;9.182;2023-05-18T14:51:43;6.23;;;2.50;;
146;SDS011;45999;48.808;9.182;2023-05-18T14:54:10;5.17;;;2.27;;
146;SDS011;45999;48.808;9.182;2023-05-18T14:56:38;6.00;;;2.43;;
146;SDS011;45999;48.808;9.182;2023-05-18T14:59:04;6.20;;;1.87;;
146;SDS011;45999;48.808;9.182;2023-05-18T15:01:30;7.33;;;2.60;;
146;SDS011;45999;48.808;9.182;2023-05-18T15:03:57;6.00;;;2.33;;
146;SDS011;45999;48.808;9.182;2023-05-18T15:06:23;8.93;;;2.90;;
146;SDS011;45999;48.808;9.182;2023-05-18T15:08:50;4.57;;;2.13;;
146;SDS011;45999;48.808;9.182;2023-05-18T15:11:17;7.43;;;2.73;;
146;SDS011;45999;48.808;9.182;2023-05-18T15:13:44;5.07;;;2.10;;
146;SDS011;45999;48.808;9.182;2023-05-18T15:16:11;6.07;;;2.43;;
146;SDS011;45999;48.808;9.182;2023-05-18T15:18:38;4.53;;;2.00;;
146;SDS011;45999;48.808;9.182;2023-05-18T15:21:05;7.03;;;2.60;;
146;SDS011;45999;48.808;9.182;2023-05-18T15:23:31;6.17;;;2.20;;
146;SDS011;45999;48.808;9.182;2023-05-18T15:25:57;8.77;;;2.63;;
146;SDS011;45999;48.808;9.182;2023-05-18T15:28:24;4.73;;;2.03;;
146;SDS011;45999;48.808;9.182;2023-05-18T15:30:50;4.87;;;2.43;;
146;SDS011;45999;48.808;9.182;2023-05-18T15:33:18;6.27;;;2.60;;
146;SDS011;45999;48.808;9.182;2023-05-18T15:35:45;4.53;;;2.00;;
146;SDS011;45999;48.808;9.182;2023-05-18T15:38:12;6.93;;;2.50;;
146;SDS011;45999;48.808;9.182;2023-05-18T15:40:38;7.80;;;2.37;;
146;SDS011;45999;48.808;9.182;2023-05-18T15:43:07;4.53;;;2.23;;